createdAt,value
2022-08-07T00:00:26.009Z,19.88
2022-08-07T00:02:53.873Z,19.05
2022-08-07T00:05:23.676Z,19.34
2022-08-07T00:07:59.948Z,19.78
2022-08-07T00:10:31.415Z,19.44
2022-08-07T00:13:02.481Z,19.61
2022-08-07T00:15:46.759Z,19.45
2022-08-07T00:18:25.606Z,19.27
2022-08-07T00:21:01.397Z,19.25
2022-08-07T00:23:31.709Z,18.27
2022-08-07T00:26:18.544Z,18.77
2022-08-07T00:28:55.453Z,18.91
2022-08-07T00:31:26.080Z,18.48
2022-08-07T00:34:08.942Z,18.73
2022-08-07T00:36:42.731Z,18.82
2022-08-07T00:39:16.969Z,19.50
2022-08-07T00:42:05.036Z,19.00
2022-08-07T00:44:34.843Z,18.57
2022-08-07T00:47:03.855Z,18.52
2022-08-07T00:50:19.916Z,18.70
2022-08-07T00:52:21.801Z,17.97
2022-08-07T00:54:53.752Z,17.72
2022-08-07T00:57:26.355Z,17.93
2022-08-07T00:59:54.464Z,17.84
2022-08-07T01:02:29.319Z,18.72
2022-08-07T01:04:59.172Z,18.10
2022-08-07T01:07:29.519Z,18.09
2022-08-07T01:10:05.349Z,17.95
2022-08-07T01:12:36.688Z,18.17
2022-08-07T01:15:11.902Z,17.60
2022-08-07T01:17:44.590Z,17.49
2022-08-07T01:20:16.593Z,18.32
2022-08-07T01:22:46.726Z,17.59
2022-08-07T01:25:54.667Z,17.65
2022-08-07T01:28:17.319Z,16.88
2022-08-07T01:30:47.333Z,16.93
2022-08-07T01:33:19.203Z,17.12
2022-08-07T01:35:53.473Z,16.86
2022-08-07T01:38:25.785Z,17.40
2022-08-07T01:41:04.513Z,17.53
2022-08-07T01:43:38.344Z,17.85
2022-08-07T01:46:08.068Z,17.45
2022-08-07T01:48:46.647Z,17.79
2022-08-07T01:51:58.504Z,16.91
2022-08-07T01:54:33.299Z,16.99
2022-08-07T01:57:24.818Z,17.51
2022-08-07T02:00:13.716Z,16.60
2022-08-07T02:03:11.942Z,17.60
2022-08-07T02:05:59.358Z,17.11
2022-08-07T02:08:29.974Z,16.91
2022-08-07T02:11:00.638Z,17.31
2022-08-07T02:13:56.444Z,17.29
2022-08-07T02:16:28.799Z,16.84
2022-08-07T02:20:07.489Z,16.94
2022-08-07T02:21:58.904Z,17.49
2022-08-07T02:24:30.067Z,17.61
2022-08-07T02:27:01.354Z,16.94
2022-08-07T02:29:31.675Z,17.01
2022-08-07T02:32:01.772Z,16.33
2022-08-07T02:34:32.567Z,16.74
2022-08-07T02:37:08.196Z,16.68
2022-08-07T02:39:42.397Z,16.31
2022-08-07T02:42:16.414Z,16.91
2022-08-07T02:44:50.178Z,16.47
2022-08-07T02:47:23.333Z,17.01
2022-08-07T02:50:00.177Z,17.13
2022-08-07T02:52:44.253Z,17.26
2022-08-07T02:56:02.157Z,15.85
2022-08-07T02:58:22.398Z,16.96
2022-08-07T03:00:58.048Z,16.88
2022-08-07T03:03:49.263Z,17.20
2022-08-07T03:06:32.092Z,16.45
2022-08-07T03:09:03.619Z,16.84
2022-08-07T03:11:38.581Z,15.97
2022-08-07T03:14:07.768Z,17.11
2022-08-07T03:16:35.870Z,16.94
2022-08-07T03:19:07.812Z,16.46
2022-08-07T03:21:36.004Z,16.38
2022-08-07T03:24:20.157Z,16.73
2022-08-07T03:26:59.132Z,15.67
2022-08-07T03:29:46.055Z,16.13
2022-08-07T03:32:58.219Z,16.65
2022-08-07T03:35:43.691Z,16.01
2022-08-07T03:38:21.174Z,16.54
2022-08-07T03:40:53.927Z,16.58
2022-08-07T03:43:32.229Z,16.32
2022-08-07T03:46:10.557Z,16.11
2022-08-07T03:49:02.441Z,16.58
2022-08-07T03:51:47.409Z,16.14
2022-08-07T03:54:36.120Z,15.62
2022-08-07T03:57:08.313Z,16.07
2022-08-07T03:59:46.637Z,16.48
2022-08-07T04:02:27.224Z,16.22
2022-08-07T04:04:54.726Z,16.28
2022-08-07T04:07:25.205Z,16.23
2022-08-07T04:10:05.305Z,15.85
2022-08-07T04:12:35.278Z,15.59
2022-08-07T04:15:04.886Z,16.08
2022-08-07T04:18:31.204Z,15.55
2022-08-07T04:20:25.383Z,16.11
2022-08-07T04:23:01.600Z,15.99
2022-08-07T04:25:39.403Z,16.19
2022-08-07T04:28:13.305Z,15.66
2022-08-07T04:30:55.350Z,16.25
2022-08-07T04:33:32.031Z,15.94
2022-08-07T04:36:06.542Z,16.18
2022-08-07T04:38:37.292Z,16.14
2022-08-07T04:41:04.890Z,16.35
2022-08-07T04:44:12.138Z,16.93
2022-08-07T04:47:08.716Z,16.23
2022-08-07T04:50:22.264Z,16.90
2022-08-07T04:54:00.959Z,16.60
2022-08-07T04:58:13.257Z,17.25
2022-08-07T05:00:10.983Z,19.40
2022-08-07T05:02:59.247Z,20.12
2022-08-07T05:05:53.512Z,20.58
2022-08-07T05:09:08.131Z,21.49
2022-08-07T05:11:57.171Z,20.93
2022-08-07T05:14:53.824Z,22.24
2022-08-07T05:17:53.054Z,24.22
2022-08-07T05:20:23.858Z,23.49
2022-08-07T05:22:56.641Z,23.11
2022-08-07T05:25:26.296Z,24.56
2022-08-07T05:28:21.362Z,24.06
2022-08-07T05:30:57.043Z,22.51
2022-08-07T05:33:30.400Z,21.69
2022-08-07T05:35:59.178Z,20.88
2022-08-07T05:39:01.294Z,20.53
2022-08-07T05:41:18.452Z,19.97
2022-08-07T05:44:08.521Z,19.08
2022-08-07T05:46:44.276Z,19.45
2022-08-07T05:49:13.066Z,19.14
2022-08-07T05:51:46.150Z,19.05
2022-08-07T05:54:30.261Z,19.19
2022-08-07T05:57:03.485Z,20.80
2022-08-07T05:59:46.534Z,20.38
2022-08-07T06:02:30.560Z,21.42
2022-08-07T06:05:15.440Z,19.84
2022-08-07T06:08:12.902Z,20.72
2022-08-07T06:10:38.850Z,19.88
2022-08-07T06:13:13.583Z,21.16
2022-08-07T06:15:43.563Z,22.70
2022-08-07T06:18:21.594Z,20.41
2022-08-07T06:22:16.781Z,21.03
2022-08-07T06:23:45.858Z,21.95
2022-08-07T06:26:27.933Z,23.40
2022-08-07T06:29:01.538Z,21.09
2022-08-07T06:31:49.373Z,22.33
2022-08-07T06:34:20.717Z,22.11
2022-08-07T06:36:51.824Z,22.15
2022-08-07T06:40:17.714Z,22.19
2022-08-07T06:42:35.096Z,22.58
2022-08-07T06:45:18.286Z,20.39
2022-08-07T06:47:57.311Z,21.05
2022-08-07T06:50:33.409Z,22.43
2022-08-07T06:53:07.200Z,21.42
2022-08-07T06:56:01.194Z,21.55
2022-08-07T06:58:32.122Z,22.49
2022-08-07T07:01:09.292Z,21.91
2022-08-07T07:03:48.615Z,23.31
2022-08-07T07:06:24.024Z,22.43
2022-08-07T07:08:55.120Z,21.06
2022-08-07T07:12:08.835Z,22.03
2022-08-07T07:14:14.104Z,22.24
2022-08-07T07:16:50.074Z,22.25
2022-08-07T07:19:57.589Z,22.34
2022-08-07T07:22:35.808Z,22.35
2022-08-07T07:26:31.225Z,22.45
2022-08-07T07:28:42.036Z,23.25
2022-08-07T07:31:10.929Z,24.09
2022-08-07T07:33:39.369Z,23.81
2022-08-07T07:36:12.856Z,22.81
2022-08-07T07:38:43.477Z,23.42
2022-08-07T07:41:19.627Z,22.90
2022-08-07T07:44:17.558Z,23.24
2022-08-07T07:46:55.187Z,24.26
2022-08-07T07:50:34.693Z,22.50
2022-08-07T07:52:17.236Z,23.77
2022-08-07T07:54:50.575Z,23.86
2022-08-07T07:57:44.059Z,24.51
2022-08-07T08:00:11.491Z,23.75
2022-08-07T08:03:01.314Z,23.86
2022-08-07T08:05:32.250Z,23.41
2022-08-07T08:08:35.669Z,23.50
2022-08-07T08:11:01.590Z,23.87
2022-08-07T08:13:33.257Z,24.07
2022-08-07T08:16:19.728Z,23.04
2022-08-07T08:18:55.822Z,24.38
2022-08-07T08:21:55.455Z,24.20
2022-08-07T08:25:04.770Z,24.40
2022-08-07T08:27:56.226Z,24.35
2022-08-07T08:30:32.023Z,24.89
2022-08-07T08:33:02.994Z,24.26
2022-08-07T08:35:39.434Z,24.19
2022-08-07T08:38:16.853Z,25.10
2022-08-07T08:41:02.975Z,24.70
2022-08-07T08:43:50.533Z,25.08
2022-08-07T08:46:39.591Z,24.74
2022-08-07T08:50:06.044Z,25.28
2022-08-07T08:52:51.732Z,24.78
2022-08-07T08:56:01.614Z,24.47
2022-08-07T08:59:02.347Z,25.69
2022-08-07T09:02:09.019Z,26.09
2022-08-07T09:04:59.356Z,26.59
2022-08-07T09:08:17.802Z,26.55
2022-08-07T09:11:43.408Z,26.48
2022-08-07T09:14:37.190Z,27.30
2022-08-07T09:18:01.325Z,26.72
2022-08-07T09:21:01.005Z,25.88
2022-08-07T09:24:32.504Z,26.73
2022-08-07T09:27:19.997Z,26.33
2022-08-07T09:30:03.549Z,26.49
2022-08-07T09:33:41.016Z,27.15
2022-08-07T09:36:35.448Z,26.59
2022-08-07T09:39:52.671Z,27.40
2022-08-07T09:42:23.037Z,27.72
2022-08-07T09:46:29.077Z,27.77
2022-08-07T09:48:30.115Z,27.99
2022-08-07T09:52:15.231Z,27.62
2022-08-07T09:54:55.882Z,28.08
2022-08-07T09:57:54.655Z,27.22
2022-08-07T10:00:32.755Z,27.61
2022-08-07T10:04:05.602Z,28.02
2022-08-07T10:07:24.612Z,27.60
2022-08-07T10:10:20.949Z,27.77
2022-08-07T10:14:00.862Z,27.26
2022-08-07T10:16:45.082Z,27.37
2022-08-07T10:20:00.627Z,28.39
2022-08-07T10:23:07.736Z,28.64
2022-08-07T10:26:17.755Z,29.26
2022-08-07T10:29:24.426Z,29.19
2022-08-07T10:32:16.548Z,28.72
2022-08-07T10:35:27.284Z,29.19
2022-08-07T10:38:35.889Z,29.24
2022-08-07T10:41:46.445Z,29.46
2022-08-07T10:44:39.639Z,29.19
2022-08-07T10:47:52.573Z,28.97
2022-08-07T10:50:28.112Z,29.04
2022-08-07T10:53:41.732Z,28.83
2022-08-07T10:56:30.969Z,29.80
2022-08-07T10:59:32.018Z,30.21
2022-08-07T11:02:33.445Z,30.47
2022-08-07T11:05:48.811Z,29.25
2022-08-07T11:08:38.914Z,30.77
2022-08-07T11:11:14.174Z,31.33
2022-08-07T11:14:45.969Z,29.56
2022-08-07T11:17:01.386Z,29.94
2022-08-07T11:20:18.712Z,30.55
2022-08-07T11:23:30.750Z,30.35
2022-08-07T11:26:25.429Z,30.34
2022-08-07T11:28:56.978Z,29.85
2022-08-07T11:31:49.046Z,30.90
2022-08-07T11:34:46.037Z,30.24
2022-08-07T11:37:57.524Z,29.22
2022-08-07T11:41:00.294Z,30.34
2022-08-07T11:44:14.358Z,31.21
2022-08-07T11:47:38.656Z,30.73
2022-08-07T11:50:57.837Z,30.02
2022-08-07T11:54:00.865Z,30.80
2022-08-07T11:57:03.020Z,31.81
2022-08-07T12:00:11.995Z,32.05
2022-08-07T12:02:58.282Z,31.04
2022-08-07T12:06:36.254Z,31.40
2022-08-07T12:09:16.366Z,31.78
2022-08-07T12:12:09.502Z,30.59
2022-08-07T12:15:00.183Z,31.38
2022-08-07T12:18:22.377Z,30.75
2022-08-07T12:21:55.648Z,31.88
2022-08-07T12:24:37.834Z,32.64
2022-08-07T12:27:18.630Z,32.36
2022-08-07T12:30:06.430Z,30.98
2022-08-07T12:32:50.370Z,31.53
2022-08-07T12:35:19.528Z,31.31
2022-08-07T12:38:09.312Z,31.94
2022-08-07T12:40:47.455Z,31.24
2022-08-07T12:44:02.677Z,31.03
2022-08-07T12:46:56.701Z,31.48
2022-08-07T12:49:51.974Z,30.87
2022-08-07T12:52:41.616Z,31.86
2022-08-07T12:56:03.128Z,31.98
2022-08-07T12:58:37.456Z,31.96
2022-08-07T13:01:08.886Z,32.33
2022-08-07T13:04:31.573Z,32.49
2022-08-07T13:08:14.298Z,32.79
2022-08-07T13:10:51.601Z,32.54
2022-08-07T13:13:57.445Z,32.98
2022-08-07T13:16:29.561Z,31.94
2022-08-07T13:19:50.740Z,31.46
2022-08-07T13:22:37.854Z,32.58
2022-08-07T13:25:24.258Z,31.76
2022-08-07T13:28:13.610Z,31.58
2022-08-07T13:30:53.223Z,32.74
2022-08-07T13:34:34.443Z,31.90
2022-08-07T13:36:57.793Z,32.47
2022-08-07T13:40:36.127Z,32.25
2022-08-07T13:42:57.328Z,32.65
2022-08-07T13:46:11.578Z,31.54
2022-08-07T13:48:20.835Z,31.63
2022-08-07T13:51:02.023Z,32.17
2022-08-07T13:54:01.559Z,32.57
2022-08-07T13:56:35.776Z,32.84
2022-08-07T13:59:27.060Z,33.45
2022-08-07T14:02:12.863Z,33.41
2022-08-07T14:05:01.564Z,32.45
2022-08-07T14:07:38.281Z,32.14
2022-08-07T14:10:28.151Z,32.27
2022-08-07T14:13:03.757Z,32.28
2022-08-07T14:15:43.574Z,32.06
2022-08-07T14:18:28.893Z,32.39
2022-08-07T14:22:02.406Z,32.76
2022-08-07T14:24:37.138Z,33.25
2022-08-07T14:28:09.773Z,33.17
2022-08-07T14:30:11.258Z,33.08
2022-08-07T14:32:45.689Z,33.17
2022-08-07T14:35:42.779Z,32.57
2022-08-07T14:38:26.552Z,32.77
2022-08-07T14:41:06.321Z,33.04
2022-08-07T14:43:58.833Z,32.78
2022-08-07T14:46:33.395Z,32.51
2022-08-07T14:49:17.400Z,32.54
2022-08-07T14:52:03.759Z,31.96
2022-08-07T14:54:42.131Z,32.95
2022-08-07T14:57:19.773Z,32.35
2022-08-07T15:00:07.010Z,32.25
2022-08-07T15:02:37.175Z,32.10
2022-08-07T15:05:20.417Z,32.73
2022-08-07T15:07:52.800Z,33.08
2022-08-07T15:10:30.123Z,32.14
2022-08-07T15:13:11.888Z,31.56
2022-08-07T15:15:52.251Z,31.70
2022-08-07T15:18:43.750Z,32.48
2022-08-07T15:21:44.151Z,32.54
2022-08-07T15:25:13.906Z,33.23
2022-08-07T15:27:12.178Z,33.20
2022-08-07T15:30:08.801Z,32.52
2022-08-07T15:33:01.299Z,32.65
2022-08-07T15:36:00.663Z,31.44
2022-08-07T15:38:30.889Z,32.02
2022-08-07T15:47:16.900Z,33.58
2022-08-07T15:50:05.903Z,33.25
2022-08-07T15:52:38.239Z,32.47
2022-08-07T15:55:12.273Z,32.12
2022-08-07T15:57:48.904Z,32.40
2022-08-07T16:00:31.599Z,32.47
2022-08-07T16:03:20.899Z,31.99
2022-08-07T16:05:52.759Z,32.05
2022-08-07T16:08:31.236Z,31.94
2022-08-07T16:11:26.750Z,31.77
2022-08-07T16:14:20.457Z,31.63
2022-08-07T16:17:16.289Z,31.40
2022-08-07T16:20:55.173Z,31.33
2022-08-07T16:24:01.096Z,30.99
2022-08-07T16:27:19.395Z,30.93
2022-08-07T16:30:31.199Z,31.10
2022-08-07T16:34:01.771Z,31.11
2022-08-07T16:37:01.822Z,31.66
2022-08-07T16:39:58.100Z,31.08
2022-08-07T16:42:59.226Z,32.13
2022-08-07T16:46:41.004Z,31.23
2022-08-07T16:50:28.730Z,31.68
2022-08-07T16:52:52.289Z,31.57
2022-08-07T16:55:47.052Z,32.35
2022-08-07T16:58:54.405Z,31.34
2022-08-07T17:01:48.463Z,31.68
2022-08-07T17:06:02.185Z,30.91
2022-08-07T17:08:02.021Z,31.33
2022-08-07T17:10:54.499Z,31.69
2022-08-07T17:13:41.465Z,30.67
2022-08-07T17:16:27.170Z,30.37
2022-08-07T17:19:04.613Z,30.24
2022-08-07T17:21:51.621Z,30.57
2022-08-07T17:24:40.223Z,31.27
2022-08-07T17:27:32.548Z,31.18
2022-08-07T17:30:18.132Z,29.89
2022-08-07T17:34:10.023Z,30.25
2022-08-07T17:36:32.617Z,30.25
2022-08-07T17:40:07.828Z,30.47
2022-08-07T17:43:00.937Z,30.06
2022-08-07T17:45:37.670Z,29.65
2022-08-07T17:48:31.112Z,30.29
2022-08-07T17:51:07.280Z,30.02
2022-08-07T17:54:06.428Z,30.29
2022-08-07T17:56:52.504Z,29.83
2022-08-07T17:59:54.903Z,29.27
2022-08-07T18:02:57.096Z,29.64
2022-08-07T18:06:02.293Z,29.98
2022-08-07T18:09:01.039Z,30.07
2022-08-07T18:12:19.536Z,29.59
2022-08-07T18:15:12.320Z,29.06
2022-08-07T18:18:33.184Z,29.48
2022-08-07T18:21:37.337Z,29.26
2022-08-07T18:24:51.596Z,29.12
2022-08-07T18:28:00.153Z,29.40
2022-08-07T18:30:44.568Z,29.37
2022-08-07T18:33:17.302Z,28.80
2022-08-07T18:36:32.875Z,28.93
2022-08-07T18:40:07.484Z,28.73
2022-08-07T18:43:01.084Z,28.84
2022-08-07T18:46:24.535Z,28.98
2022-08-07T18:50:19.571Z,28.20
2022-08-07T18:52:35.344Z,29.39
2022-08-07T18:54:42.341Z,27.85
2022-08-07T18:57:58.694Z,28.42
2022-08-07T19:01:06.953Z,27.79
2022-08-07T19:04:00.446Z,28.65
2022-08-07T19:06:57.736Z,27.95
2022-08-07T19:10:18.530Z,27.94
2022-08-07T19:13:21.792Z,27.67
2022-08-07T19:17:01.382Z,26.95
2022-08-07T19:20:02.145Z,27.50
2022-08-07T19:23:03.154Z,26.99
2022-08-07T19:26:25.326Z,26.93
2022-08-07T19:30:54.480Z,27.39
2022-08-07T19:32:18.511Z,26.35
2022-08-07T19:34:59.325Z,26.66
2022-08-07T19:37:56.607Z,26.09
2022-08-07T19:40:30.395Z,26.87
2022-08-07T19:42:59.674Z,26.28
2022-08-07T19:45:31.173Z,27.20
2022-08-07T19:48:43.931Z,27.09
2022-08-07T19:51:20.112Z,27.09
2022-08-07T19:54:31.148Z,26.48
2022-08-07T19:57:50.952Z,25.66
2022-08-07T19:59:41.979Z,26.13
2022-08-07T20:02:19.753Z,25.50
2022-08-07T20:04:50.308Z,24.53
2022-08-07T20:07:45.921Z,25.36
2022-08-07T20:10:37.000Z,25.51
2022-08-07T20:13:23.141Z,24.55
2022-08-07T20:15:58.329Z,23.00
2022-08-07T20:18:32.226Z,23.38
2022-08-07T20:21:21.455Z,23.78
2022-08-07T20:24:00.996Z,24.74
2022-08-07T20:26:32.736Z,23.83
2022-08-07T20:29:16.990Z,24.11
2022-08-07T20:32:04.280Z,24.35
2022-08-07T20:34:50.056Z,23.76
2022-08-07T20:37:29.889Z,24.29
2022-08-07T20:40:09.221Z,23.54
2022-08-07T20:42:56.703Z,23.42
2022-08-07T20:46:24.494Z,23.63
2022-08-07T20:48:28.987Z,23.79
2022-08-07T20:51:01.740Z,23.63
2022-08-07T20:54:02.908Z,23.93
2022-08-07T20:56:27.228Z,23.52
2022-08-07T20:59:01.386Z,24.10
2022-08-07T21:01:46.024Z,23.22
2022-08-07T21:04:23.637Z,22.79
2022-08-07T21:06:56.866Z,22.61
2022-08-07T21:09:35.361Z,23.00
2022-08-07T21:12:28.429Z,23.08
2022-08-07T21:15:03.230Z,23.71
2022-08-07T21:18:20.848Z,23.15
2022-08-07T21:20:29.831Z,23.28
2022-08-07T21:23:08.516Z,22.45
2022-08-07T21:26:31.185Z,23.00
2022-08-07T21:29:30.323Z,22.47
2022-08-07T21:32:48.892Z,22.64
2022-08-07T21:35:34.766Z,22.14
2022-08-07T21:38:31.329Z,22.57
2022-08-07T21:41:59.773Z,22.86
2022-08-07T21:44:41.178Z,22.64
2022-08-07T21:47:26.101Z,22.33
2022-08-07T21:50:22.562Z,21.99
2022-08-07T21:53:17.063Z,21.82
2022-08-07T21:56:36.604Z,22.31
2022-08-07T21:59:01.316Z,22.16
2022-08-07T22:02:10.450Z,23.02
2022-08-07T22:04:51.184Z,22.07
2022-08-07T22:07:58.189Z,22.97
2022-08-07T22:10:24.855Z,22.25
2022-08-07T22:12:59.791Z,22.19
2022-08-07T22:16:42.023Z,21.81
2022-08-07T22:19:23.528Z,22.07
2022-08-07T22:22:27.875Z,22.29
2022-08-07T22:25:08.424Z,22.38
2022-08-07T22:28:19.842Z,22.76
2022-08-07T22:30:36.750Z,21.96
2022-08-07T22:33:09.623Z,21.40
2022-08-07T22:36:01.112Z,22.50
2022-08-07T22:38:47.913Z,21.62
2022-08-07T22:41:29.115Z,21.26
2022-08-07T22:44:21.770Z,21.28
2022-08-07T22:47:24.680Z,22.06
2022-08-07T22:50:49.063Z,21.73
2022-08-07T22:54:05.695Z,21.37
2022-08-07T22:57:05.457Z,22.22
2022-08-07T23:00:32.900Z,21.27
2022-08-07T23:03:58.989Z,21.09
2022-08-07T23:06:50.633Z,20.66
2022-08-07T23:10:36.515Z,20.69
2022-08-07T23:13:29.599Z,21.27
2022-08-07T23:16:48.566Z,20.97
2022-08-07T23:20:21.302Z,20.59
2022-08-07T23:24:04.218Z,20.82
2022-08-07T23:26:55.012Z,20.85
2022-08-07T23:30:38.789Z,20.82
2022-08-07T23:34:20.917Z,21.07
2022-08-07T23:36:29.824Z,20.01
2022-08-07T23:39:56.708Z,20.17
2022-08-07T23:42:57.768Z,20.05
2022-08-07T23:46:03.252Z,20.43
2022-08-07T23:49:15.215Z,19.72
2022-08-07T23:53:05.491Z,19.69
2022-08-07T23:55:51.809Z,19.59
2022-08-07T23:58:26.703Z,19.26
